Time;durP1;ratioP1;P1;durP2;ratioP2;P2;SDS_P1;SDS_P2;PMS_P1;PMS_P2;Temp;Humidity;BMP_temperature;BMP_pressure;BME280_temperature;BME280_humidity;BME280_pressure;Samples;Min_cycle;Max_cycle;Signal;HPM_P1;HPM_P2
2021/09/29 00:00:45;;;;;;;19.85;10.75;;;12.10;99.90;;;;;;5094837;28;20100;-68
2021/09/29 00:03:11;;;;;;;15.40;9.60;;;12.10;99.90;;;;;;5096165;28;20050;-68
2021/09/29 00:05:39;;;;;;;13.75;10.23;;;12.10;99.90;;;;;;5096094;28;20039;-68
2021/09/29 00:08:07;;;;;;;16.48;10.35;;;12.00;99.90;;;;;;5094649;28;20036;-68
2021/09/29 00:10:33;;;;;;;16.75;10.73;;;12.00;99.90;;;;;;5095544;28;20043;-68
2021/09/29 00:12:58;;;;;;;14.57;10.20;;;12.00;99.90;;;;;;5096055;28;20043;-68
2021/09/29 00:15:24;;;;;;;15.50;10.45;;;12.00;99.90;;;;;;5095022;28;20495;-68
2021/09/29 00:17:50;;;;;;;15.00;9.90;;;12.00;99.90;;;;;;5095778;28;20088;-68
2021/09/29 00:20:16;;;;;;;13.18;10.20;;;12.00;99.90;;;;;;5094258;28;20040;-68
2021/09/29 00:22:42;;;;;;;15.40;9.77;;;12.00;99.90;;;;;;5094366;28;20089;-68
2021/09/29 00:25:11;;;;;;;15.50;10.00;;;11.90;99.90;;;;;;5096020;28;20040;-68
2021/09/29 00:27:37;;;;;;;19.38;10.45;;;12.00;99.90;;;;;;5095648;28;20028;-68
2021/09/29 00:30:07;;;;;;;16.73;11.10;;;12.00;99.90;;;;;;5095292;28;20381;-68
2021/09/29 00:32:35;;;;;;;19.33;10.52;;;11.90;99.90;;;;;;5095488;28;20078;-68
2021/09/29 00:35:01;;;;;;;14.57;10.00;;;11.90;99.90;;;;;;5094373;28;20389;-68
2021/09/29 00:37:27;;;;;;;16.75;10.77;;;11.90;99.90;;;;;;5093912;28;20077;-68
2021/09/29 00:39:53;;;;;;;17.65;10.80;;;11.90;99.90;;;;;;5095285;28;20114;-68
2021/09/29 00:42:19;;;;;;;21.27;10.60;;;11.90;99.90;;;;;;5095354;28;20170;-68
2021/09/29 00:44:45;;;;;;;17.17;9.95;;;12.00;99.90;;;;;;5095090;28;20044;-68
2021/09/29 00:47:11;;;;;;;19.60;10.90;;;11.90;99.90;;;;;;5094977;28;20516;-68
2021/09/29 00:49:37;;;;;;;18.25;9.75;;;11.90;99.90;;;;;;5094793;28;20046;-68
2021/09/29 00:52:03;;;;;;;18.58;11.02;;;11.90;99.90;;;;;;5094139;28;20126;-68
2021/09/29 00:54:30;;;;;;;19.10;10.82;;;11.80;99.90;;;;;;5076813;28;20051;-68
2021/09/29 00:56:57;;;;;;;17.27;10.23;;;11.80;99.90;;;;;;5095018;28;20071;-68
2021/09/29 00:59:23;;;;;;;16.30;10.55;;;11.80;99.90;;;;;;5093542;28;20097;-68
2021/09/29 01:01:49;;;;;;;14.57;10.60;;;11.80;99.90;;;;;;5095215;28;20412;-68
2021/09/29 01:04:16;;;;;;;19.83;11.18;;;11.80;99.90;;;;;;5095033;28;20090;-68
2021/09/29 01:06:51;;;;;;;19.85;10.90;;;11.70;99.90;;;;;;5095065;28;20050;-68
2021/09/29 01:09:41;;;;;;;17.33;11.38;;;11.70;99.90;;;;;;5094661;28;20043;-68
2021/09/29 01:12:24;;;;;;;16.58;10.02;;;11.60;99.90;;;;;;5093538;28;20040;-68
2021/09/29 01:15:02;;;;;;;13.77;10.13;;;11.60;99.90;;;;;;5093299;28;20381;-68
2021/09/29 01:17:29;;;;;;;20.58;11.05;;;11.60;99.90;;;;;;5094535;28;20075;-68
2021/09/29 01:20:06;;;;;;;14.80;11.38;;;11.50;99.90;;;;;;5094184;28;20050;-68
2021/09/29 01:22:41;;;;;;;18.70;11.48;;;11.60;99.90;;;;;;5094452;28;20035;-68
2021/09/29 01:25:12;;;;;;;20.42;12.23;;;11.50;99.90;;;;;;5093816;28;20071;-68
2021/09/29 01:27:40;;;;;;;15.95;11.95;;;11.50;99.90;;;;;;5094363;28;20434;-68
2021/09/29 01:30:07;;;;;;;16.70;11.38;;;11.50;99.90;;;;;;5094219;28;20082;-68
2021/09/29 01:32:33;;;;;;;17.23;11.13;;;11.50;99.90;;;;;;5093136;28;20047;-68
2021/09/29 01:34:58;;;;;;;16.58;11.07;;;11.50;99.90;;;;;;5094234;28;20386;-68
2021/09/29 01:37:24;;;;;;;21.92;11.18;;;11.50;99.90;;;;;;5094323;28;20040;-68
2021/09/29 01:39:50;;;;;;;15.90;10.45;;;11.60;99.90;;;;;;5093715;28;20048;-68
2021/09/29 01:42:15;;;;;;;21.45;11.27;;;11.60;99.90;;;;;;5094159;28;20388;-68
2021/09/29 01:44:41;;;;;;;17.65;10.90;;;11.50;99.90;;;;;;5092689;28;20044;-68
2021/09/29 01:47:09;;;;;;;21.27;11.35;;;11.60;99.90;;;;;;5092670;28;20032;-68
2021/09/29 01:49:49;;;;;;;14.70;10.93;;;11.50;99.90;;;;;;5092290;28;20086;-68
2021/09/29 01:52:19;;;;;;;22.75;12.00;;;11.50;99.90;;;;;;5094138;28;20032;-68
2021/09/29 01:54:46;;;;;;;17.55;10.85;;;11.50;99.90;;;;;;5094124;28;20100;-68
2021/09/29 01:57:13;;;;;;;18.77;11.32;;;11.40;99.90;;;;;;5094339;28;20044;-68
2021/09/29 01:59:41;;;;;;;18.70;10.82;;;11.50;99.90;;;;;;5093584;28;20039;-68
2021/09/29 02:02:06;;;;;;;16.52;11.93;;;11.40;99.90;;;;;;5093700;28;20036;-68
2021/09/29 02:04:32;;;;;;;16.27;11.25;;;11.40;99.90;;;;;;5093567;28;20442;-68
2021/09/29 02:06:57;;;;;;;17.63;11.05;;;11.40;99.90;;;;;;5093839;28;20046;-68
2021/09/29 02:09:25;;;;;;;26.40;11.75;;;11.40;99.90;;;;;;5093696;28;20376;-68
2021/09/29 02:11:53;;;;;;;13.88;10.85;;;11.40;99.90;;;;;;5092213;28;20402;-68
2021/09/29 02:14:19;;;;;;;23.52;11.45;;;11.40;99.90;;;;;;5092257;28;20044;-68
2021/09/29 02:16:47;;;;;;;15.65;10.45;;;11.40;99.90;;;;;;5093412;28;20036;-68
2021/09/29 02:19:13;;;;;;;18.48;10.88;;;11.40;99.90;;;;;;5093670;28;20043;-68
2021/09/29 02:21:40;;;;;;;16.50;11.13;;;11.40;99.90;;;;;;5092848;28;20040;-68
2021/09/29 02:24:06;;;;;;;18.92;11.20;;;11.40;99.90;;;;;;5093363;28;20048;-68
2021/09/29 02:26:32;;;;;;;14.32;9.77;;;11.40;99.90;;;;;;5093682;28;20047;-68
2021/09/29 02:28:58;;;;;;;14.60;10.00;;;11.40;99.90;;;;;;5093229;28;20044;-68
2021/09/29 02:31:24;;;;;;;18.13;10.40;;;11.40;99.90;;;;;;5092514;28;20043;-68
2021/09/29 02:33:49;;;;;;;20.27;11.13;;;11.40;99.90;;;;;;5093573;28;20040;-68
2021/09/29 02:36:15;;;;;;;21.00;11.90;;;11.40;99.90;;;;;;5093510;28;20518;-68
2021/09/29 02:38:42;;;;;;;16.13;11.05;;;11.40;99.90;;;;;;5093009;28;20034;-68
2021/09/29 02:41:12;;;;;;;15.90;10.95;;;11.40;99.90;;;;;;5093587;28;20058;-68
2021/09/29 02:43:38;;;;;;;19.63;10.90;;;11.30;99.90;;;;;;5092090;28;20094;-68
2021/09/29 02:46:04;;;;;;;14.70;9.48;;;11.30;99.90;;;;;;5091993;28;20500;-68
2021/09/29 02:48:29;;;;;;;18.13;10.38;;;11.30;99.90;;;;;;5093082;28;20403;-68
2021/09/29 02:50:56;;;;;;;15.07;11.65;;;11.40;99.90;;;;;;5091847;28;20072;-68
2021/09/29 02:53:21;;;;;;;15.57;10.00;;;11.30;99.90;;;;;;5091908;28;20458;-68
2021/09/29 02:55:47;;;;;;;20.50;9.95;;;11.40;99.90;;;;;;5093404;28;20119;-68
2021/09/29 02:58:13;;;;;;;15.73;10.25;;;11.40;99.90;;;;;;5093214;28;20523;-68
2021/09/29 03:00:38;;;;;;;14.55;10.70;;;11.40;99.90;;;;;;5091822;28;20036;-68
2021/09/29 03:03:04;;;;;;;19.08;10.02;;;11.40;99.90;;;;;;5092832;28;20556;-68
2021/09/29 03:05:30;;;;;;;17.02;10.25;;;11.40;99.90;;;;;;5093244;28;20048;-68
2021/09/29 03:07:55;;;;;;;16.80;9.75;;;11.40;99.90;;;;;;5093406;28;20043;-68
2021/09/29 03:10:21;;;;;;;14.13;9.95;;;11.40;99.90;;;;;;5092752;28;20079;-68
2021/09/29 03:12:46;;;;;;;22.08;10.82;;;11.30;99.90;;;;;;5091592;28;20036;-68
2021/09/29 03:15:14;;;;;;;19.02;10.95;;;11.30;99.90;;;;;;5093020;28;20039;-68
2021/09/29 03:17:40;;;;;;;17.33;10.25;;;11.30;99.90;;;;;;5093350;28;20040;-68
2021/09/29 03:20:07;;;;;;;20.10;11.93;;;11.40;99.90;;;;;;5092617;28;20468;-68
2021/09/29 03:22:32;;;;;;;21.15;10.15;;;11.30;99.90;;;;;;5093104;28;20040;-68
2021/09/29 03:24:59;;;;;;;20.13;10.32;;;11.40;99.90;;;;;;5092839;28;20047;-68
2021/09/29 03:27:25;;;;;;;15.95;10.52;;;11.30;99.90;;;;;;5092916;28;20067;-68
2021/09/29 03:29:50;;;;;;;18.73;11.02;;;11.30;99.90;;;;;;5092497;28;20117;-68
2021/09/29 03:32:16;;;;;;;16.13;11.18;;;11.30;99.90;;;;;;5092958;28;20036;-68
2021/09/29 03:34:42;;;;;;;19.90;11.25;;;11.30;99.90;;;;;;5092758;28;20044;-68
2021/09/29 03:37:07;;;;;;;14.75;9.20;;;11.20;99.90;;;;;;5092893;28;20075;-68
2021/09/29 03:39:33;;;;;;;20.13;10.98;;;11.30;99.90;;;;;;5092344;28;20047;-68
2021/09/29 03:41:59;;;;;;;18.73;11.48;;;11.30;99.90;;;;;;5091626;28;20036;-68
2021/09/29 03:44:24;;;;;;;18.85;11.02;;;11.30;99.90;;;;;;5092694;28;20051;-68
2021/09/29 03:46:50;;;;;;;13.63;9.73;;;11.30;99.90;;;;;;5092605;28;20049;-68
2021/09/29 03:49:16;;;;;;;15.45;10.05;;;11.30;99.90;;;;;;5093737;28;20438;-68
2021/09/29 03:51:41;;;;;;;17.88;10.55;;;11.40;99.90;;;;;;5096429;28;20043;-68
2021/09/29 03:54:07;;;;;;;15.45;11.05;;;11.30;99.90;;;;;;5096384;28;20070;-68
2021/09/29 03:56:32;;;;;;;19.10;12.05;;;11.30;99.90;;;;;;5096267;28;20040;-68
2021/09/29 03:58:58;;;;;;;14.95;10.25;;;11.30;99.90;;;;;;5095984;28;20404;-68
2021/09/29 04:01:23;;;;;;;15.25;10.45;;;11.30;99.90;;;;;;5096688;28;20036;-68
2021/09/29 04:03:49;;;;;;;18.85;10.45;;;11.30;99.90;;;;;;5095858;28;20376;-68
2021/09/29 04:06:15;;;;;;;14.23;10.20;;;11.40;99.90;;;;;;5096059;28;20040;-68
2021/09/29 04:08:40;;;;;;;20.10;9.77;;;11.40;99.90;;;;;;5094625;28;20036;-68
2021/09/29 04:11:08;;;;;;;16.80;10.93;;;11.30;99.90;;;;;;5094971;28;20097;-68
2021/09/29 04:13:34;;;;;;;20.00;10.05;;;11.30;99.90;;;;;;5096103;28;20409;-68
2021/09/29 04:16:00;;;;;;;16.13;9.57;;;11.30;99.90;;;;;;5095853;28;20036;-68
2021/09/29 04:18:26;;;;;;;13.52;9.68;;;11.40;99.90;;;;;;5094392;28;20043;-67
2021/09/29 04:20:52;;;;;;;20.02;9.85;;;11.40;99.90;;;;;;5095560;28;20040;-68
2021/09/29 04:23:17;;;;;;;17.35;10.65;;;11.40;99.90;;;;;;5095444;28;20123;-68
2021/09/29 04:25:43;;;;;;;17.48;9.75;;;11.40;99.90;;;;;;5094695;28;20044;-68
2021/09/29 04:28:09;;;;;;;16.00;10.93;;;11.30;99.90;;;;;;5095987;28;20028;-68
2021/09/29 04:30:35;;;;;;;20.77;11.15;;;11.30;99.90;;;;;;5094713;28;20044;-68
2021/09/29 04:33:02;;;;;;;17.15;10.07;;;11.40;99.90;;;;;;5095277;28;20051;-68
2021/09/29 04:35:28;;;;;;;14.93;10.07;;;11.30;99.90;;;;;;5095538;28;20081;-68
2021/09/29 04:37:53;;;;;;;16.35;9.45;;;11.40;99.90;;;;;;5095572;28;20047;-68
2021/09/29 04:40:19;;;;;;;16.88;10.02;;;11.40;99.90;;;;;;5093763;28;20040;-68
2021/09/29 04:42:44;;;;;;;19.73;10.10;;;11.40;99.90;;;;;;5095174;28;20039;-68
2021/09/29 04:45:10;;;;;;;16.38;9.98;;;11.30;99.90;;;;;;5095134;28;20032;-68
2021/09/29 04:47:36;;;;;;;16.02;9.65;;;11.30;99.90;;;;;;5095109;28;20485;-68
2021/09/29 04:50:02;;;;;;;15.38;9.25;;;11.30;99.90;;;;;;5093494;28;20044;-69
2021/09/29 04:52:28;;;;;;;17.60;10.55;;;11.30;99.90;;;;;;5095234;28;20115;-68
2021/09/29 04:54:53;;;;;;;18.70;10.02;;;11.30;99.90;;;;;;5095203;28;20526;-69
2021/09/29 04:57:19;;;;;;;13.70;9.93;;;11.30;99.90;;;;;;5094997;28;20127;-69
2021/09/29 04:59:45;;;;;;;16.38;9.85;;;11.30;99.90;;;;;;5094338;28;20040;-69
2021/09/29 05:02:13;;;;;;;14.25;10.57;;;11.30;99.90;;;;;;5094708;28;20031;-69
2021/09/29 05:04:39;;;;;;;19.27;10.93;;;11.40;99.90;;;;;;5095117;28;20063;-69
2021/09/29 05:07:05;;;;;;;21.00;10.40;;;11.30;99.90;;;;;;5094891;28;20036;-69
2021/09/29 05:09:31;;;;;;;18.25;10.20;;;11.30;99.90;;;;;;5094545;28;20436;-69
2021/09/29 05:12:18;;;;;;;17.88;10.27;;;11.30;99.90;;;;;;5093879;28;20376;-68
2021/09/29 05:14:43;;;;;;;14.45;9.57;;;11.30;99.90;;;;;;5093837;28;20107;-67
2021/09/29 05:17:09;;;;;;;15.05;9.40;;;11.20;99.90;;;;;;5094672;28;20036;-68
2021/09/29 05:19:35;;;;;;;17.85;10.75;;;11.20;99.90;;;;;;5092989;28;20048;-67
2021/09/29 05:22:02;;;;;;;18.95;10.80;;;11.30;99.90;;;;;;5093477;28;20051;-68
2021/09/29 05:24:28;;;;;;;16.55;9.10;;;11.20;99.90;;;;;;5094457;28;20036;-68
2021/09/29 05:26:53;;;;;;;18.05;10.25;;;11.20;99.90;;;;;;5094431;28;20107;-70
2021/09/29 05:29:21;;;;;;;17.00;9.75;;;11.20;99.90;;;;;;5092778;28;20527;-68
2021/09/29 05:31:47;;;;;;;23.17;10.63;;;11.20;99.90;;;;;;5094411;28;20129;-68
2021/09/29 05:34:13;;;;;;;22.23;10.75;;;11.20;99.90;;;;;;5094402;28;20086;-68
2021/09/29 05:36:41;;;;;;;18.38;10.65;;;11.20;99.90;;;;;;5092846;28;20514;-68
2021/09/29 05:39:08;;;;;;;16.42;10.13;;;11.20;99.90;;;;;;5093137;28;20043;-68
2021/09/29 05:41:33;;;;;;;22.58;10.35;;;11.20;99.90;;;;;;5094233;28;20476;-68
2021/09/29 05:43:59;;;;;;;16.48;11.45;;;11.20;99.90;;;;;;5094133;28;20109;-68
2021/09/29 05:46:24;;;;;;;18.58;10.88;;;11.20;99.90;;;;;;5094092;28;20051;-68
2021/09/29 05:48:51;;;;;;;14.13;9.77;;;11.20;99.90;;;;;;5093769;28;20040;-67
2021/09/29 05:51:17;;;;;;;14.70;10.30;;;11.20;99.90;;;;;;5094495;28;20040;-68
2021/09/29 05:53:42;;;;;;;20.08;11.07;;;11.20;99.90;;;;;;5093917;28;20047;-68
2021/09/29 05:56:09;;;;;;;14.95;9.98;;;11.20;99.90;;;;;;5094083;28;20118;-68
2021/09/29 05:58:36;;;;;;;19.73;10.07;;;11.20;99.90;;;;;;5093693;28;20044;-68
2021/09/29 06:01:02;;;;;;;21.58;11.20;;;11.20;99.90;;;;;;5093970;28;20063;-67
2021/09/29 06:03:27;;;;;;;17.92;10.82;;;11.20;99.90;;;;;;5075488;28;20484;-67
2021/09/29 06:05:53;;;;;;;17.70;10.32;;;11.20;99.90;;;;;;5094089;28;20039;-67
2021/09/29 06:08:19;;;;;;;16.23;10.52;;;11.20;99.90;;;;;;5093889;28;20086;-67
2021/09/29 06:10:44;;;;;;;14.85;9.35;;;11.20;99.90;;;;;;5091871;28;20089;-68
2021/09/29 06:13:10;;;;;;;17.92;11.05;;;11.30;99.90;;;;;;5092777;28;20044;-67
2021/09/29 06:15:36;;;;;;;18.15;9.27;;;11.30;99.90;;;;;;5093731;28;20047;-67
2021/09/29 06:18:03;;;;;;;15.65;8.98;;;11.40;99.90;;;;;;5093830;28;20460;-68
2021/09/29 06:20:33;;;;;;;17.40;10.05;;;11.40;99.90;;;;;;5092351;28;20439;-67
2021/09/29 06:23:00;;;;;;;15.77;10.30;;;11.40;99.90;;;;;;5093270;28;20060;-68
2021/09/29 06:25:26;;;;;;;15.73;10.48;;;11.40;99.90;;;;;;5092060;28;20036;-68
2021/09/29 06:27:52;;;;;;;13.75;10.27;;;11.50;99.90;;;;;;5093315;28;20430;-67
2021/09/29 06:30:18;;;;;;;17.30;9.20;;;11.50;99.90;;;;;;5093271;28;20032;-67
2021/09/29 06:32:44;;;;;;;15.85;9.68;;;11.50;99.90;;;;;;5093287;28;20058;-67
2021/09/29 06:35:11;;;;;;;19.60;10.57;;;11.50;99.90;;;;;;5093722;28;20036;-66
2021/09/29 06:37:42;;;;;;;14.60;9.40;;;11.60;99.90;;;;;;5092434;28;20081;-67
2021/09/29 06:40:12;;;;;;;18.85;10.50;;;11.60;99.90;;;;;;5093251;28;20036;-66
2021/09/29 06:42:38;;;;;;;31.83;10.57;;;11.60;99.90;;;;;;5093539;28;20044;-67
2021/09/29 06:45:05;;;;;;;20.10;9.93;;;11.70;99.90;;;;;;5092964;28;20042;-66
2021/09/29 06:47:31;;;;;;;17.08;9.20;;;11.70;99.90;;;;;;5092248;28;20051;-66
2021/09/29 06:49:56;;;;;;;17.02;8.30;;;11.70;99.90;;;;;;5091641;28;20040;-67
2021/09/29 06:52:22;;;;;;;16.05;10.35;;;11.70;99.90;;;;;;5093297;28;20405;-67
2021/09/29 06:54:48;;;;;;;15.82;9.20;;;11.80;99.90;;;;;;5093078;28;20050;-67
2021/09/29 06:57:13;;;;;;;12.45;8.57;;;11.90;99.90;;;;;;5092098;28;20044;-68
2021/09/29 06:59:40;;;;;;;19.13;9.45;;;11.90;99.90;;;;;;5093078;28;20039;-68
2021/09/29 07:02:05;;;;;;;15.88;8.80;;;12.00;99.90;;;;;;5093137;28;20396;-68
2021/09/29 07:04:31;;;;;;;15.60;8.95;;;12.10;99.90;;;;;;5093551;28;20044;-69
2021/09/29 07:06:56;;;;;;;13.25;7.72;;;12.20;99.90;;;;;;5093408;28;20040;-69
2021/09/29 07:09:22;;;;;;;14.45;8.55;;;12.50;99.90;;;;;;5092974;28;20433;-69
2021/09/29 07:11:47;;;;;;;11.77;7.75;;;12.80;99.90;;;;;;5093316;28;20120;-68
2021/09/29 07:14:13;;;;;;;17.70;8.48;;;13.00;99.90;;;;;;5093229;28;20084;-69
2021/09/29 07:16:39;;;;;;;13.35;7.78;;;13.00;99.90;;;;;;5093088;28;20079;-67
2021/09/29 07:19:05;;;;;;;16.77;8.00;;;13.00;99.90;;;;;;5091378;28;20082;-68
2021/09/29 07:21:30;;;;;;;11.98;7.88;;;12.90;99.90;;;;;;5091397;28;20052;-67
2021/09/29 07:23:56;;;;;;;13.55;8.00;;;12.90;99.90;;;;;;5093837;28;20071;-67
2021/09/29 07:26:23;;;;;;;13.00;7.65;;;12.80;99.90;;;;;;5096735;28;20039;-69
2021/09/29 07:28:49;;;;;;;10.85;7.35;;;12.80;99.90;;;;;;5096443;28;20111;-68
2021/09/29 07:31:16;;;;;;;14.80;8.00;;;12.70;99.90;;;;;;5096602;28;20461;-69
2021/09/29 07:33:41;;;;;;;15.85;8.10;;;12.70;99.90;;;;;;5096940;28;20043;-69
2021/09/29 07:36:08;;;;;;;12.63;8.63;;;12.70;99.90;;;;;;5096816;28;20043;-70
2021/09/29 07:38:34;;;;;;;11.55;6.72;;;12.70;99.90;;;;;;5096518;28;20036;-70
2021/09/29 07:40:59;;;;;;;14.27;7.80;;;12.70;99.90;;;;;;5096448;28;20085;-70
2021/09/29 07:43:26;;;;;;;14.18;7.45;;;12.60;99.90;;;;;;5096427;28;20036;-70
2021/09/29 07:45:51;;;;;;;10.75;7.28;;;12.60;99.90;;;;;;5095949;28;20044;-69
2021/09/29 07:48:17;;;;;;;18.88;8.52;;;12.60;99.90;;;;;;5095490;28;20031;-69
2021/09/29 07:50:43;;;;;;;13.27;7.20;;;12.60;99.90;;;;;;5096065;28;20125;-69
2021/09/29 07:53:09;;;;;;;14.50;8.10;;;12.50;99.90;;;;;;5096360;28;20040;-69
2021/09/29 07:55:35;;;;;;;15.65;7.68;;;12.60;99.90;;;;;;5095029;28;20389;-68
2021/09/29 07:58:00;;;;;;;12.48;7.80;;;12.60;99.90;;;;;;5094753;28;20048;-68
2021/09/29 08:00:26;;;;;;;14.85;7.57;;;12.60;99.90;;;;;;5096245;28;20051;-68
2021/09/29 08:02:52;;;;;;;12.20;6.50;;;12.60;99.90;;;;;;5094832;28;20051;-68
2021/09/29 08:05:20;;;;;;;12.82;7.07;;;12.70;99.90;;;;;;5094718;28;20072;-68
2021/09/29 08:07:48;;;;;;;10.68;6.20;;;12.70;99.90;;;;;;5096184;28;20039;-70
2021/09/29 08:10:14;;;;;;;11.52;6.82;;;12.70;99.90;;;;;;5095871;28;20039;-69
2021/09/29 08:12:39;;;;;;;15.05;6.65;;;12.80;99.90;;;;;;5096019;28;20105;-69
2021/09/29 08:15:12;;;;;;;15.18;6.53;;;12.80;99.90;;;;;;5095860;28;20040;-67
2021/09/29 08:17:38;;;;;;;14.60;6.70;;;12.80;99.90;;;;;;5094550;28;20404;-68
2021/09/29 08:20:04;;;;;;;13.10;6.78;;;12.80;99.90;;;;;;5095357;28;20050;-68
2021/09/29 08:22:30;;;;;;;17.38;6.57;;;12.80;99.90;;;;;;5094551;28;20122;-68
2021/09/29 08:25:02;;;;;;;13.68;7.47;;;12.70;99.90;;;;;;5095574;28;20131;-68
2021/09/29 08:30:25;;;;;;;15.98;7.20;;;12.70;99.90;;;;;;5095357;28;20036;-68
2021/09/29 08:35:32;;;;;;;15.35;7.10;;;12.70;99.90;;;;;;5095184;28;20112;-67
2021/09/29 08:38:13;;;;;;;11.10;6.72;;;12.70;99.90;;;;;;5095445;28;20400;-68
2021/09/29 08:41:00;;;;;;;14.55;8.18;;;12.70;99.90;;;;;;5077216;28;20040;-69
2021/09/29 08:46:01;;;;;;;15.75;6.90;;;12.70;99.90;;;;;;5074906;28;20037;-69
2021/09/29 08:48:46;;;;;;;14.85;7.28;;;12.70;99.90;;;;;;5075061;28;20036;-69
2021/09/29 08:51:30;;;;;;;17.67;10.27;;;12.70;99.90;;;;;;5073631;28;20093;-69
2021/09/29 08:57:11;;;;;;;27.42;9.68;;;12.70;99.90;;;;;;5074856;28;20070;-68
2021/09/29 09:16:35;;;;;;;10.45;7.00;;;12.80;99.90;;;;;;5074847;28;20059;-69
2021/09/29 09:19:04;;;;;;;13.23;7.10;;;12.80;99.90;;;;;;5073232;28;20119;-69
2021/09/29 09:21:54;;;;;;;13.60;7.10;;;12.80;99.90;;;;;;5074220;28;20124;-69
2021/09/29 09:24:23;;;;;;;14.35;7.97;;;12.80;99.90;;;;;;5074241;28;20049;-69
2021/09/29 09:27:02;;;;;;;14.38;8.10;;;12.80;99.90;;;;;;5074115;28;20043;-69
2021/09/29 09:29:28;;;;;;;12.25;7.40;;;12.80;99.90;;;;;;5073834;28;20036;-69
2021/09/29 09:32:06;;;;;;;16.20;8.95;;;12.90;99.90;;;;;;5073909;28;20362;-69
2021/09/29 09:34:32;;;;;;;15.45;7.88;;;12.90;99.90;;;;;;5072754;28;20063;-69
2021/09/29 09:36:57;;;;;;;9.98;6.72;;;12.90;99.90;;;;;;5073996;28;20040;-69
2021/09/29 09:39:25;;;;;;;15.73;7.35;;;12.90;99.90;;;;;;5073883;28;20482;-69
2021/09/29 09:41:52;;;;;;;17.73;9.50;;;12.90;99.90;;;;;;5072637;28;20048;-69
2021/09/29 09:44:37;;;;;;;14.23;7.45;;;12.90;99.90;;;;;;5073873;28;20072;-70
2021/09/29 09:47:05;;;;;;;17.00;7.82;;;13.00;99.90;;;;;;5090703;28;20039;-70
2021/09/29 09:49:51;;;;;;;16.73;7.20;;;13.00;99.90;;;;;;5092338;28;20051;-69
2021/09/29 09:52:34;;;;;;;10.70;7.15;;;13.00;99.90;;;;;;5094144;28;20040;-69
2021/09/29 09:55:16;;;;;;;13.73;7.68;;;13.00;99.90;;;;;;5092648;28;20404;-69
2021/09/29 09:57:43;;;;;;;19.20;8.57;;;12.90;99.90;;;;;;5092909;28;20055;-69
2021/09/29 10:00:14;;;;;;;13.13;8.48;;;13.00;99.90;;;;;;5092456;28;20093;-70
2021/09/29 10:02:45;;;;;;;16.90;8.90;;;13.00;99.90;;;;;;5092539;28;20050;-69
2021/09/29 10:05:16;;;;;;;12.77;7.88;;;13.00;99.90;;;;;;5093808;28;20044;-68
2021/09/29 10:07:43;;;;;;;21.45;8.55;;;12.90;99.90;;;;;;5093798;28;20040;-68
2021/09/29 10:13:18;;;;;;;16.42;9.00;;;12.90;99.90;;;;;;5092581;28;20048;-71
2021/09/29 10:27:10;;;;;;;10.68;7.70;;;12.90;99.90;;;;;;5092310;28;20052;-69
2021/09/29 10:29:39;;;;;;;12.32;6.05;;;12.90;99.90;;;;;;5091812;28;20085;-69
2021/09/29 10:32:27;;;;;;;9.50;5.93;;;12.90;99.90;;;;;;5093735;28;20058;-69
2021/09/29 10:35:06;;;;;;;9.30;5.45;;;13.00;99.90;;;;;;5093371;28;20047;-68
2021/09/29 10:37:57;;;;;;;6.65;5.28;;;13.00;99.90;;;;;;5093668;28;20456;-68
2021/09/29 10:43:01;;;;;;;5.85;4.88;;;13.00;99.90;;;;;;5093435;28;20051;-69
2021/09/29 10:51:15;;;;;;;8.77;5.40;;;12.90;99.90;;;;;;5091964;28;20123;-69
2021/09/29 11:08:23;;;;;;;5.97;4.28;;;12.90;99.90;;;;;;5096330;28;20130;-69
2021/09/29 11:31:05;;;;;;;6.90;4.20;;;13.00;99.90;;;;;;5095062;28;20076;-71
2021/09/29 11:33:45;;;;;;;4.95;2.70;;;13.00;99.90;;;;;;5095535;28;20084;-71
2021/09/29 12:12:26;;;;;;;3.97;1.42;;;12.70;99.90;;;;;;5075639;28;20047;-70
2021/09/29 12:14:58;;;;;;;2.40;1.17;;;12.70;99.90;;;;;;5074428;28;20040;-71
2021/09/29 12:17:27;;;;;;;5.97;1.67;;;12.70;99.90;;;;;;5075616;28;20044;-70
2021/09/29 12:20:07;;;;;;;3.35;1.75;;;12.60;99.90;;;;;;5075431;28;20041;-70
2021/09/29 12:22:46;;;;;;;3.40;1.35;;;12.60;99.90;;;;;;5074758;28;20051;-70
2021/09/29 12:25:15;;;;;;;3.33;1.25;;;12.60;99.90;;;;;;5075485;28;20045;-70
2021/09/29 12:30:34;;;;;;;2.53;1.40;;;12.70;99.90;;;;;;5075313;28;20389;-70
2021/09/29 12:33:09;;;;;;;4.00;1.55;;;12.70;99.90;;;;;;5073879;28;20036;-70
2021/09/29 12:35:44;;;;;;;3.78;1.85;;;12.60;99.90;;;;;;5075730;28;20071;-70
2021/09/29 12:38:11;;;;;;;2.42;0.70;;;12.70;99.90;;;;;;5074027;28;20086;-70
2021/09/29 12:40:41;;;;;;;3.05;0.30;;;12.60;99.90;;;;;;5075039;28;20037;-70
2021/09/29 12:43:17;;;;;;;1.35;0.50;;;12.50;99.90;;;;;;5074895;28;20489;-70
2021/09/29 12:45:46;;;;;;;1.58;0.40;;;12.40;99.90;;;;;;5073726;28;20086;-70
2021/09/29 12:48:13;;;;;;;1.02;0.30;;;12.20;99.90;;;;;;5074121;28;20511;-70
2021/09/29 12:50:53;;;;;;;4.20;0.50;;;12.10;99.90;;;;;;5073702;28;20477;-71
2021/09/29 12:53:29;;;;;;;3.45;0.50;;;12.10;99.90;;;;;;5075435;28;20090;-70
2021/09/29 12:55:59;;;;;;;2.42;0.52;;;12.10;99.90;;;;;;5075174;28;20427;-70
2021/09/29 12:58:27;;;;;;;2.70;0.50;;;12.00;99.90;;;;;;5073630;28;20048;-70
2021/09/29 13:00:54;;;;;;;0.52;0.10;;;12.00;99.90;;;;;;5075291;28;20469;-70
2021/09/29 13:03:19;;;;;;;1.67;0.32;;;12.00;99.90;;;;;;5074733;28;20058;-70
2021/09/29 13:05:46;;;;;;;2.92;0.65;;;12.10;99.90;;;;;;5073156;28;20533;-70
2021/09/29 13:08:12;;;;;;;1.55;1.17;;;12.10;99.90;;;;;;5073534;28;20050;-70
2021/09/29 13:10:38;;;;;;;2.47;0.50;;;11.90;99.90;;;;;;5072717;28;20047;-71
2021/09/29 13:13:04;;;;;;;1.42;0.90;;;11.90;99.90;;;;;;5074837;28;20102;-69
2021/09/29 13:15:31;;;;;;;2.03;0.50;;;11.90;99.90;;;;;;5074340;28;20032;-69
2021/09/29 13:17:58;;;;;;;1.60;0.32;;;11.90;99.90;;;;;;5073193;28;20037;-69
2021/09/29 13:20:26;;;;;;;1.38;0.85;;;11.80;99.90;;;;;;5072800;28;20040;-69
2021/09/29 13:23:09;;;;;;;3.45;0.60;;;11.90;99.90;;;;;;5074463;28;20036;-70
2021/09/29 13:25:55;;;;;;;2.72;0.32;;;11.90;99.90;;;;;;5074231;28;20524;-70
2021/09/29 13:36:39;;;;;;;2.45;1.00;;;12.00;99.90;;;;;;5072653;28;20044;-71
2021/09/29 13:39:11;;;;;;;4.38;1.00;;;11.90;99.90;;;;;;5073585;28;20047;-70
2021/09/29 13:41:37;;;;;;;2.17;0.90;;;12.00;99.90;;;;;;5074010;28;20388;-70
2021/09/29 13:44:04;;;;;;;1.98;0.80;;;12.00;99.90;;;;;;5074235;28;20036;-70
2021/09/29 13:46:29;;;;;;;3.45;0.90;;;12.00;99.90;;;;;;5074232;28;20118;-69
2021/09/29 13:48:56;;;;;;;5.82;0.95;;;12.00;99.90;;;;;;5073488;28;20102;-70
2021/09/29 13:51:26;;;;;;;5.80;0.93;;;12.00;99.90;;;;;;5055900;28;20044;-69
2021/09/29 13:53:53;;;;;;;4.72;0.90;;;12.10;99.90;;;;;;5072748;28;20064;-69
2021/09/29 13:56:21;;;;;;;2.85;0.90;;;12.10;99.90;;;;;;5073986;28;20511;-68
2021/09/29 14:31:29;;;;;;;1.92;0.77;;;12.00;99.90;;;;;;5080572;28;20050;-69
2021/09/29 14:33:54;;;;;;;2.72;0.77;;;11.90;99.90;;;;;;5093482;28;20127;-70
2021/09/29 14:36:20;;;;;;;3.55;0.70;;;11.90;99.90;;;;;;5094049;28;20027;-74
2021/09/29 14:38:46;;;;;;;0.90;0.60;;;12.00;99.90;;;;;;5092505;28;20036;-74
2021/09/29 14:41:12;;;;;;;4.93;0.80;;;11.90;99.90;;;;;;5093390;28;20079;-75
2021/09/29 14:43:38;;;;;;;3.42;0.80;;;11.90;99.90;;;;;;5092049;28;20083;-74
2021/09/29 14:46:05;;;;;;;3.13;1.25;;;12.00;99.90;;;;;;5093383;28;20071;-74
2021/09/29 14:48:31;;;;;;;3.78;1.27;;;11.90;99.90;;;;;;5093094;28;20040;-75
2021/09/29 14:50:57;;;;;;;3.20;1.00;;;11.80;99.90;;;;;;5093371;28;20044;-77
2021/09/29 14:53:22;;;;;;;2.00;0.70;;;11.90;99.90;;;;;;5092083;28;20040;-75
2021/09/29 14:55:48;;;;;;;6.43;0.95;;;11.80;99.90;;;;;;5093191;28;20043;-75
2021/09/29 14:58:13;;;;;;;2.38;0.68;;;11.70;99.90;;;;;;5093239;28;20043;-74
2021/09/29 15:00:39;;;;;;;1.80;0.75;;;11.70;99.90;;;;;;5093078;28;20079;-75
2021/09/29 15:03:05;;;;;;;3.38;0.93;;;11.70;99.90;;;;;;5093383;28;20441;-73
2021/09/29 15:05:31;;;;;;;3.45;0.77;;;11.70;99.90;;;;;;5092916;28;20052;-72
2021/09/29 15:07:57;;;;;;;2.80;0.70;;;11.80;99.90;;;;;;5093003;28;20527;-71
2021/09/29 15:10:23;;;;;;;1.23;0.68;;;11.70;99.90;;;;;;5091609;28;20441;-71
2021/09/29 15:12:48;;;;;;;3.30;1.40;;;11.70;99.90;;;;;;5091839;28;20044;-72
2021/09/29 15:15:21;;;;;;;4.90;0.98;;;11.70;99.90;;;;;;5093043;28;20155;-71
2021/09/29 15:17:53;;;;;;;3.92;0.82;;;11.70;99.90;;;;;;5091736;28;20122;-71
2021/09/29 15:23:04;;;;;;;2.17;0.80;;;11.70;99.90;;;;;;5092044;28;20450;-72
2021/09/29 15:47:46;;;;;;;3.33;1.05;;;11.80;99.90;;;;;;5096550;28;20044;-70
2021/09/29 15:53:22;;;;;;;3.53;0.68;;;11.80;99.90;;;;;;5095394;28;20111;-71